Time;durP1;ratioP1;P1;durP2;ratioP2;P2;SDS_P1;SDS_P2;PMS_P1;PMS_P2;Temp;Humidity;BMP_temperature;BMP_pressure;BME280_temperature;BME280_humidity;BME280_pressure;Samples;Min_cycle;Max_cycle;Signal;HPM_P1;HPM_P2
2022/12/19 00:02:18;;;;;;;5.53;4.10;;;;;;;;;;5061315;28;20570;-96
2022/12/19 00:04:47;;;;;;;6.00;4.55;;;;;;;;;;5042209;28;20060;-94
2022/12/19 00:07:14;;;;;;;10.55;4.57;;;;;;;;;;5057807;28;20049;-93
2022/12/19 00:09:44;;;;;;;8.18;5.10;;;;;;;;;;5059295;28;20049;-95
2022/12/19 00:12:11;;;;;;;6.40;4.32;;;;;;;;;;5056188;28;20059;-94
2022/12/19 00:14:45;;;;;;;;;;;;;;;;;;5054856;28;20045;-94
2022/12/19 00:17:12;;;;;;;6.55;4.40;;;;;;;;;;5052145;22;19920;-80
2022/12/19 00:19:39;;;;;;;6.57;4.68;;;;;;;;;;5059216;28;20079;-78
2022/12/19 00:22:07;;;;;;;5.82;4.38;;;;;;;;;;5059045;28;20131;-79
2022/12/19 00:24:37;;;;;;;8.10;4.40;;;;;;;;;;5058509;28;20052;-79
2022/12/19 00:27:04;;;;;;;8.57;5.22;;;;;;;;;;5058534;28;20515;-78
2022/12/19 00:29:33;;;;;;;8.95;4.95;;;;;;;;;;5056869;28;20048;-78
2022/12/19 00:32:01;;;;;;;7.88;5.15;;;;;;;;;;5057960;28;20045;-79
2022/12/19 00:34:28;;;;;;;7.25;4.95;;;;;;;;;;5058245;28;20075;-78
2022/12/19 00:36:56;;;;;;;7.63;5.50;;;;;;;;;;5056790;28;20101;-79
2022/12/19 00:39:23;;;;;;;10.20;5.10;;;;;;;;;;5057019;28;20045;-78
2022/12/19 00:41:50;;;;;;;8.40;5.50;;;;;;;;;;5055067;28;20048;-78
2022/12/19 00:44:17;;;;;;;8.80;5.68;;;;;;;;;;5056208;28;20052;-79
2022/12/19 00:46:44;;;;;;;10.32;5.43;;;;;;;;;;5056639;28;20064;-79
2022/12/19 00:49:18;;;;;;;8.38;5.47;;;;;;;;;;5057162;28;20470;-78
2022/12/19 00:51:46;;;;;;;10.57;5.93;;;;;;;;;;5056355;28;20521;-78
2022/12/19 00:54:13;;;;;;;10.57;6.38;;;;;;;;;;5057124;28;20136;-78
2022/12/19 00:56:41;;;;;;;9.38;6.10;;;;;;;;;;5055707;28;20048;-79
2022/12/19 00:59:09;;;;;;;11.65;5.75;;;;;;;;;;5057651;28;20080;-79
2022/12/19 01:01:38;;;;;;;10.60;6.20;;;;;;;;;;5057945;28;20053;-80
2022/12/19 01:04:06;;;;;;;8.18;5.60;;;;;;;;;;5055286;28;20110;-80
2022/12/19 01:06:53;;;;;;;8.38;6.00;;;;;;;;;;5059097;28;20516;-80
2022/12/19 01:09:28;;;;;;;10.90;6.15;;;;;;;;;;5062530;28;20055;-80
2022/12/19 01:14:41;;;;;;;8.95;6.25;;;;;;;;;;5057456;28;20041;-77
2022/12/19 01:17:09;;;;;;;10.27;6.20;;;;;;;;;;5056633;28;20132;-78
2022/12/19 01:19:36;;;;;;;15.77;7.90;;;;;;;;;;5054623;28;20049;-77
2022/12/19 01:22:10;;;;;;;12.98;6.93;;;;;;;;;;5054893;28;20120;-80
2022/12/19 01:24:37;;;;;;;14.20;7.82;;;;;;;;;;5055657;28;20513;-80
2022/12/19 01:27:04;;;;;;;13.77;7.82;;;;;;;;;;5056628;28;20055;-79
2022/12/19 01:29:32;;;;;;;11.27;6.55;;;;;;;;;;5057924;28;20049;-77
2022/12/19 01:32:03;;;;;;;12.63;7.35;;;;;;;;;;5056760;28;20041;-80
2022/12/19 01:34:31;;;;;;;12.27;7.20;;;;;;;;;;5057358;28;20132;-79
2022/12/19 01:36:58;;;;;;;12.60;7.70;;;;;;;;;;5055421;28;20045;-76
2022/12/19 01:39:25;;;;;;;12.27;7.75;;;;;;;;;;5056109;28;20045;-79
2022/12/19 01:41:57;;;;;;;14.95;8.50;;;;;;;;;;5057374;28;20052;-79
2022/12/19 01:44:25;;;;;;;12.77;7.70;;;;;;;;;;5054930;28;20154;-79
2022/12/19 01:46:53;;;;;;;13.90;8.05;;;;;;;;;;5057654;28;20143;-79
2022/12/19 01:49:34;;;;;;;13.05;7.22;;;;;;;;;;5055310;28;20052;-80
2022/12/19 01:52:03;;;;;;;13.75;8.13;;;;;;;;;;5057334;28;20424;-77
2022/12/19 01:54:32;;;;;;;15.40;8.35;;;;;;;;;;5055288;28;20045;-76
2022/12/19 01:57:01;;;;;;;14.15;7.97;;;;;;;;;;5056339;28;20083;-79
2022/12/19 01:59:31;;;;;;;15.35;8.45;;;;;;;;;;5054576;28;20448;-77
2022/12/19 02:02:21;;;;;;;13.02;8.15;;;;;;;;;;5055675;28;20085;-80
2022/12/19 02:04:48;;;;;;;15.55;8.68;;;;;;;;;;5060945;28;20053;-76
2022/12/19 02:07:16;;;;;;;15.93;8.70;;;;;;;;;;5058207;28;20052;-77
2022/12/19 02:09:48;;;;;;;15.70;8.95;;;;;;;;;;5059122;28;20059;-77
2022/12/19 02:12:25;;;;;;;18.30;8.70;;;;;;;;;;5060343;28;20059;-79
2022/12/19 02:14:53;;;;;;;15.15;8.88;;;;;;;;;;5064249;28;20073;-77
2022/12/19 02:17:26;;;;;;;15.30;8.90;;;;;;;;;;5058412;28;20126;-79
2022/12/19 02:19:56;;;;;;;16.45;9.00;;;;;;;;;;5060539;28;20132;-78
2022/12/19 02:22:32;;;;;;;17.80;9.57;;;;;;;;;;5061027;28;20141;-79
2022/12/19 02:25:19;;;;;;;14.57;8.98;;;;;;;;;;5066538;28;20049;-80
2022/12/19 02:28:01;;;;;;;15.77;8.60;;;;;;;;;;5063842;28;20059;-79
2022/12/19 02:30:37;;;;;;;17.13;9.17;;;;;;;;;;5062290;28;20499;-77
2022/12/19 02:33:10;;;;;;;14.48;8.55;;;;;;;;;;5060834;28;20057;-79
2022/12/19 02:35:42;;;;;;;15.90;9.23;;;;;;;;;;5061102;28;20048;-81
2022/12/19 02:38:16;;;;;;;14.50;8.93;;;;;;;;;;5062390;28;20127;-79
2022/12/19 02:40:56;;;;;;;16.15;8.80;;;;;;;;;;5065932;28;20059;-80
2022/12/19 02:43:25;;;;;;;19.17;9.40;;;;;;;;;;5063017;28;20049;-77
2022/12/19 02:45:52;;;;;;;17.30;8.65;;;;;;;;;;5057797;28;20055;-79
2022/12/19 02:48:20;;;;;;;18.38;9.82;;;;;;;;;;5063143;28;20404;-79
2022/12/19 02:50:47;;;;;;;16.27;9.10;;;;;;;;;;5062027;28;20127;-80
2022/12/19 02:53:16;;;;;;;16.42;9.70;;;;;;;;;;5059585;28;20049;-77
2022/12/19 02:55:49;;;;;;;;;;;;;;;;;;5058555;28;20041;-76
2022/12/19 02:58:30;;;;;;;18.25;9.82;;;;;;;;;;5057852;28;19931;-77
2022/12/19 03:00:57;;;;;;;16.25;9.40;;;;;;;;;;5058282;28;20103;-77
2022/12/19 03:03:27;;;;;;;15.98;9.35;;;;;;;;;;5055847;28;20503;-77
2022/12/19 03:05:54;;;;;;;17.48;10.27;;;;;;;;;;5056902;28;20524;-77
2022/12/19 03:08:22;;;;;;;15.38;8.90;;;;;;;;;;5059628;28;20052;-77
2022/12/19 03:10:54;;;;;;;13.60;8.15;;;;;;;;;;5058658;28;20045;-77
2022/12/19 03:13:25;;;;;;;15.82;9.70;;;;;;;;;;5057550;28;20056;-79
2022/12/19 03:15:52;;;;;;;17.65;9.95;;;;;;;;;;5057251;28;20044;-77
2022/12/19 03:18:20;;;;;;;17.88;9.57;;;;;;;;;;5057579;28;20123;-77
2022/12/19 03:20:49;;;;;;;17.90;9.93;;;;;;;;;;5058283;28;20488;-77
2022/12/19 03:23:16;;;;;;;15.20;9.20;;;;;;;;;;5056283;28;20049;-77
2022/12/19 03:25:47;;;;;;;16.77;10.05;;;;;;;;;;5056824;28;20101;-78
2022/12/19 03:28:26;;;;;;;15.27;9.40;;;;;;;;;;5058124;28;20504;-77
2022/12/19 03:30:54;;;;;;;16.73;9.60;;;;;;;;;;5057728;28;20135;-77
2022/12/19 03:33:23;;;;;;;18.00;9.77;;;;;;;;;;5057312;28;20048;-77
2022/12/19 03:35:50;;;;;;;20.33;10.85;;;;;;;;;;5061458;28;20105;-78
2022/12/19 03:38:19;;;;;;;19.30;10.32;;;;;;;;;;5061631;28;20045;-78
2022/12/19 03:40:47;;;;;;;18.20;9.82;;;;;;;;;;5058706;28;20045;-77
2022/12/19 03:43:16;;;;;;;19.00;10.73;;;;;;;;;;5059538;28;20045;-77
2022/12/19 03:45:43;;;;;;;17.55;9.45;;;;;;;;;;5062776;28;20067;-78
2022/12/19 03:48:13;;;;;;;15.98;9.68;;;;;;;;;;5060719;28;20053;-78
2022/12/19 03:53:23;;;;;;;21.15;10.60;;;;;;;;;;5036673;28;20109;-93
2022/12/19 03:55:56;;;;;;;17.80;10.23;;;;;;;;;;5043389;28;20138;-93
2022/12/19 03:58:27;;;;;;;17.50;10.05;;;;;;;;;;5038955;28;20113;-93
2022/12/19 04:00:55;;;;;;;20.10;10.50;;;;;;;;;;5040626;28;20391;-92
2022/12/19 04:03:23;;;;;;;20.60;10.45;;;;;;;;;;5043748;28;20071;-93
2022/12/19 04:05:53;;;;;;;18.27;10.80;;;;;;;;;;5039409;28;20061;-92
2022/12/19 04:08:21;;;;;;;17.60;11.18;;;;;;;;;;5039839;28;20057;-91
2022/12/19 04:10:57;;;;;;;18.15;10.57;;;;;;;;;;5038492;28;20142;-93
2022/12/19 04:13:42;;;;;;;17.92;10.50;;;;;;;;;;5040783;28;20060;-93
2022/12/19 04:16:13;;;;;;;18.90;10.38;;;;;;;;;;5039304;28;20540;-90
2022/12/19 04:18:42;;;;;;;19.60;10.20;;;;;;;;;;5038606;28;20085;-89
2022/12/19 04:21:15;;;;;;;21.75;11.02;;;;;;;;;;5040282;28;20046;-91
2022/12/19 04:23:48;;;;;;;20.17;11.68;;;;;;;;;;5037970;28;20058;-92
2022/12/19 04:26:16;;;;;;;18.83;10.35;;;;;;;;;;5035738;28;20041;-92
2022/12/19 04:28:46;;;;;;;16.58;10.18;;;;;;;;;;5038210;28;20045;-93
2022/12/19 04:31:14;;;;;;;16.83;10.60;;;;;;;;;;5037357;28;20045;-90
2022/12/19 04:33:42;;;;;;;20.42;10.25;;;;;;;;;;5039651;28;20053;-91
2022/12/19 04:36:11;;;;;;;19.98;11.40;;;;;;;;;;5049389;28;20093;-92
2022/12/19 04:38:39;;;;;;;18.15;10.63;;;;;;;;;;5005333;28;20132;-92
2022/12/19 04:41:06;;;;;;;18.25;10.55;;;;;;;;;;5036239;28;20045;-92
2022/12/19 04:43:33;;;;;;;19.50;11.52;;;;;;;;;;5035610;28;20429;-94
2022/12/19 04:46:01;;;;;;;19.48;11.30;;;;;;;;;;5035035;28;20535;-91
2022/12/19 04:48:28;;;;;;;20.92;10.93;;;;;;;;;;5036311;28;20076;-90
2022/12/19 04:50:56;;;;;;;19.33;11.43;;;;;;;;;;5035971;28;20060;-94
2022/12/19 04:53:24;;;;;;;22.63;11.70;;;;;;;;;;5037233;28;20063;-93
2022/12/19 04:56:00;;;;;;;21.75;12.63;;;;;;;;;;5036895;28;20046;-94
2022/12/19 04:58:28;;;;;;;21.10;11.50;;;;;;;;;;5038043;28;20117;-90
2022/12/19 05:01:00;;;;;;;20.50;11.23;;;;;;;;;;5034182;28;20137;-93
2022/12/19 05:03:27;;;;;;;22.27;11.88;;;;;;;;;;5035471;28;20064;-91
2022/12/19 05:06:02;;;;;;;24.23;11.80;;;;;;;;;;5035374;28;20075;-94
2022/12/19 05:08:32;;;;;;;24.00;13.20;;;;;;;;;;5039020;28;20062;-94
2022/12/19 05:11:00;;;;;;;25.92;12.15;;;;;;;;;;5037391;28;20077;-90
2022/12/19 05:13:28;;;;;;;26.48;14.10;;;;;;;;;;5039077;28;20053;-94
2022/12/19 05:15:57;;;;;;;23.98;13.27;;;;;;;;;;5038679;28;20095;-94
2022/12/19 05:18:27;;;;;;;24.95;12.88;;;;;;;;;;5004423;28;20068;-92
2022/12/19 05:20:55;;;;;;;21.73;11.90;;;;;;;;;;5035409;28;20050;-93
2022/12/19 05:23:24;;;;;;;24.13;12.40;;;;;;;;;;5035155;28;20084;-93
2022/12/19 05:25:51;;;;;;;23.48;13.43;;;;;;;;;;5036331;28;20112;-92
2022/12/19 05:28:19;;;;;;;22.92;12.88;;;;;;;;;;5036471;28;20375;-93
2022/12/19 05:30:46;;;;;;;23.45;12.77;;;;;;;;;;5038549;28;20057;-93
2022/12/19 05:33:18;;;;;;;22.85;12.52;;;;;;;;;;5037979;28;20141;-93
2022/12/19 05:35:48;;;;;;;24.80;12.95;;;;;;;;;;5038842;28;20053;-92
2022/12/19 05:38:15;;;;;;;26.80;14.25;;;;;;;;;;5040200;28;20144;-93
2022/12/19 05:40:42;;;;;;;24.35;12.63;;;;;;;;;;5040275;28;20057;-93
2022/12/19 05:43:10;;;;;;;23.02;13.18;;;;;;;;;;5041455;28;20414;-93
2022/12/19 05:45:47;;;;;;;23.17;13.55;;;;;;;;;;5049918;28;20105;-95
2022/12/19 05:48:16;;;;;;;22.90;12.73;;;;;;;;;;5048898;28;20050;-90
2022/12/19 05:50:48;;;;;;;28.25;13.27;;;;;;;;;;5052511;28;20049;-94
2022/12/19 05:53:16;;;;;;;33.10;12.77;;;;;;;;;;5043436;28;20052;-94
2022/12/19 05:55:52;;;;;;;25.38;13.30;;;;;;;;;;5042948;28;20054;-92
2022/12/19 05:58:19;;;;;;;23.70;12.90;;;;;;;;;;5046109;28;20464;-93
2022/12/19 06:00:46;;;;;;;22.70;12.60;;;;;;;;;;5045808;28;20080;-94
2022/12/19 06:03:27;;;;;;;28.40;14.30;;;;;;;;;;5047626;28;20053;-93
2022/12/19 06:05:56;;;;;;;23.88;13.57;;;;;;;;;;5044531;28;20121;-93
2022/12/19 06:08:23;;;;;;;36.65;14.05;;;;;;;;;;5044147;28;20567;-93
2022/12/19 06:10:50;;;;;;;30.58;14.38;;;;;;;;;;5045467;28;20486;-93
2022/12/19 06:13:18;;;;;;;35.53;13.57;;;;;;;;;;5038825;28;20049;-92
2022/12/19 06:15:56;;;;;;;56.55;16.60;;;;;;;;;;5040784;28;20046;-93
2022/12/19 06:18:23;;;;;;;36.13;14.27;;;;;;;;;;5039334;28;20559;-92
2022/12/19 06:20:58;;;;;;;26.77;13.68;;;;;;;;;;5040721;28;20739;-93
2022/12/19 06:23:26;;;;;;;23.83;13.35;;;;;;;;;;5040647;28;20049;-93
2022/12/19 06:26:09;;;;;;;27.13;15.32;;;;;;;;;;5044470;28;20060;-93
2022/12/19 06:28:46;;;;;;;21.83;12.48;;;;;;;;;;5009981;28;20140;-93
2022/12/19 06:31:14;;;;;;;23.98;12.65;;;;;;;;;;5040841;28;20057;-94
2022/12/19 06:33:41;;;;;;;21.83;12.13;;;;;;;;;;5039312;28;20073;-94
2022/12/19 06:36:18;;;;;;;22.88;13.07;;;;;;;;;;5038860;28;20041;-94
2022/12/19 06:38:45;;;;;;;26.30;13.20;;;;;;;;;;5040541;28;20497;-94
2022/12/19 06:44:01;;;;;;;22.52;12.60;;;;;;;;;;5026798;28;20046;-94
2022/12/19 06:46:28;;;;;;;21.92;12.18;;;;;;;;;;5027659;28;20049;-95
2022/12/19 06:48:58;;;;;;;24.67;13.38;;;;;;;;;;5040029;28;20050;-95
2022/12/19 06:51:25;;;;;;;24.55;13.50;;;;;;;;;;5041502;28;20140;-95
2022/12/19 06:53:52;;;;;;;47.30;14.30;;;;;;;;;;5045016;28;20041;-94
2022/12/19 06:56:21;;;;;;;32.55;14.75;;;;;;;;;;5048174;28;20061;-95
2022/12/19 06:58:49;;;;;;;21.90;12.98;;;;;;;;;;5055663;28;20076;-92
2022/12/19 07:01:18;;;;;;;25.20;13.77;;;;;;;;;;5041456;28;20076;-92
2022/12/19 07:03:47;;;;;;;29.20;15.05;;;;;;;;;;5056178;28;20041;-94
2022/12/19 07:06:19;;;;;;;40.05;14.10;;;;;;;;;;5056869;28;20041;-94
2022/12/19 07:08:47;;;;;;;25.95;14.48;;;;;;;;;;5087072;22;20071;-94
2022/12/19 07:11:18;;;;;;;23.27;13.13;;;;;;;;;;5081725;28;20045;-94
2022/12/19 07:13:45;;;;;;;28.00;15.40;;;;;;;;;;5063414;28;20456;-93
2022/12/19 07:16:15;;;;;;;24.92;14.52;;;;;;;;;;5067436;28;20132;-93
2022/12/19 07:18:42;;;;;;;26.80;14.23;;;;;;;;;;5110949;22;20048;-94
2022/12/19 07:21:10;;;;;;;26.17;13.77;;;;;;;;;;5102572;28;20043;-94
2022/12/19 07:23:39;;;;;;;28.45;14.85;;;;;;;;;;5106322;28;20050;-94
2022/12/19 07:26:08;;;;;;;29.08;14.63;;;;;;;;;;5104541;28;20062;-93
2022/12/19 07:28:39;;;;;;;25.25;14.07;;;;;;;;;;5101685;28;20090;-92
2022/12/19 07:31:06;;;;;;;28.40;15.23;;;;;;;;;;5100667;28;20090;-94
2022/12/19 07:33:34;;;;;;;29.48;15.43;;;;;;;;;;5100444;28;20048;-93
2022/12/19 07:36:01;;;;;;;30.90;15.93;;;;;;;;;;5098769;28;20130;-93
2022/12/19 07:38:29;;;;;;;30.40;15.82;;;;;;;;;;5100150;28;20052;-93
2022/12/19 07:40:56;;;;;;;26.35;15.48;;;;;;;;;;5098513;28;20040;-94
2022/12/19 07:43:23;;;;;;;30.30;15.57;;;;;;;;;;5097574;28;20048;-93
2022/12/19 07:45:53;;;;;;;29.95;16.30;;;;;;;;;;5098560;28;20412;-94
2022/12/19 07:48:22;;;;;;;31.63;16.05;;;;;;;;;;5100029;28;20115;-94
2022/12/19 07:50:50;;;;;;;26.67;14.75;;;;;;;;;;5097600;28;20048;-94
2022/12/19 07:53:17;;;;;;;29.80;16.52;;;;;;;;;;5095954;28;20055;-94
2022/12/19 07:55:45;;;;;;;28.58;17.02;;;;;;;;;;5096823;28;20044;-93
2022/12/19 07:58:12;;;;;;;31.13;16.63;;;;;;;;;;5096790;28;20155;-92
2022/12/19 08:00:39;;;;;;;30.77;16.05;;;;;;;;;;5097157;28;20076;-94
2022/12/19 08:03:07;;;;;;;30.95;17.17;;;;;;;;;;5096687;28;20109;-92
2022/12/19 08:05:35;;;;;;;32.28;17.13;;;;;;;;;;5097449;28;20048;-94
2022/12/19 08:08:03;;;;;;;32.85;17.50;;;;;;;;;;5098350;28;20147;-94
2022/12/19 08:10:32;;;;;;;32.75;16.60;;;;;;;;;;5098860;28;20138;-94
2022/12/19 08:12:59;;;;;;;28.83;16.52;;;;;;;;;;5098532;28;20055;-95
2022/12/19 08:15:29;;;;;;;29.55;17.48;;;;;;;;;;5098286;28;20078;-95
2022/12/19 08:17:59;;;;;;;32.10;16.52;;;;;;;;;;5096991;28;20135;-95
2022/12/19 08:20:26;;;;;;;28.38;16.65;;;;;;;;;;5110364;28;20063;-92
2022/12/19 08:22:53;;;;;;;33.05;17.15;;;;;;;;;;5098029;28;20066;-95
2022/12/19 08:25:20;;;;;;;32.00;17.35;;;;;;;;;;5096549;28;20092;-95
2022/12/19 08:27:48;;;;;;;32.97;17.02;;;;;;;;;;5096079;28;20044;-94
2022/12/19 08:30:15;;;;;;;31.30;17.25;;;;;;;;;;5098073;28;20044;-94
2022/12/19 08:32:44;;;;;;;30.40;16.48;;;;;;;;;;5097177;28;20052;-92
2022/12/19 08:35:11;;;;;;;29.90;17.08;;;;;;;;;;5095652;28;20044;-93
2022/12/19 08:37:39;;;;;;;31.88;17.85;;;;;;;;;;5098120;28;20052;-94
2022/12/19 08:40:13;;;;;;;31.25;17.02;;;;;;;;;;5096539;28;20123;-92
2022/12/19 08:42:42;;;;;;;33.38;17.77;;;;;;;;;;5096010;28;20131;-95
2022/12/19 08:45:09;;;;;;;35.15;17.90;;;;;;;;;;5096875;28;20487;-95
2022/12/19 08:47:36;;;;;;;34.20;18.35;;;;;;;;;;5097152;28;20503;-95
2022/12/19 08:50:06;;;;;;;34.40;18.48;;;;;;;;;;5100760;28;20071;-95
2022/12/19 08:52:40;;;;;;;34.20;17.65;;;;;;;;;;5106720;28;20074;-92
2022/12/19 08:55:08;;;;;;;39.20;20.00;;;;;;;;;;5108825;28;20074;-94
2022/12/19 08:57:36;;;;;;;34.33;18.23;;;;;;;;;;5098782;28;20047;-96
2022/12/19 09:00:04;;;;;;;33.72;18.83;;;;;;;;;;5100489;28;20135;-95
2022/12/19 09:02:35;;;;;;;33.38;18.85;;;;;;;;;;5105055;28;20044;-96
2022/12/19 09:05:06;;;;;;;34.95;19.63;;;;;;;;;;5102423;28;20062;-95
2022/12/19 09:07:53;;;;;;;43.33;21.83;;;;;;;;;;5103150;28;20059;-95
2022/12/19 09:10:23;;;;;;;38.03;18.40;;;;;;;;;;5097607;28;20059;-95
2022/12/19 09:12:52;;;;;;;33.67;18.27;;;;;;;;;;5096486;28;20058;-93
2022/12/19 09:15:24;;;;;;;35.00;18.25;;;;;;;;;;5099730;28;20051;-95
2022/12/19 09:17:52;;;;;;;36.38;18.60;;;;;;;;;;5101014;28;20058;-96
2022/12/19 09:20:20;;;;;;;35.38;19.55;;;;;;;;;;5102878;28;20047;-96
2022/12/19 09:22:49;;;;;;;33.40;18.90;;;;;;;;;;5102849;28;20040;-96
2022/12/19 09:25:17;;;;;;;38.38;19.08;;;;;;;;;;5103164;28;20476;-96
2022/12/19 09:27:44;;;;;;;40.58;20.58;;;;;;;;;;5110644;28;20099;-94
2022/12/19 09:30:31;;;;;;;32.95;17.90;;;;;;;;;;5102500;28;20408;-94
2022/12/19 09:33:20;;;;;;;37.63;20.63;;;;;;;;;;5103581;28;20056;-96
2022/12/19 09:35:51;;;;;;;34.45;19.15;;;;;;;;;;5115506;28;20064;-96
2022/12/19 09:38:24;;;;;;;37.85;19.58;;;;;;;;;;5108547;28;20052;-96
2022/12/19 09:40:55;;;;;;;33.55;17.98;;;;;;;;;;5108353;28;20043;-96
2022/12/19 09:43:27;;;;;;;34.65;18.90;;;;;;;;;;5107104;28;20074;-96
2022/12/19 09:46:03;;;;;;;36.80;19.30;;;;;;;;;;5104052;28;20047;-96
2022/12/19 09:48:31;;;;;;;33.95;18.52;;;;;;;;;;5095975;28;20484;-95
2022/12/19 09:51:11;;;;;;;38.90;19.27;;;;;;;;;;5098196;28;20089;-94
2022/12/19 09:53:45;;;;;;;34.17;18.27;;;;;;;;;;5098054;28;20135;-94
2022/12/19 09:56:21;;;;;;;36.22;19.38;;;;;;;;;;5099556;28;20044;-92
2022/12/19 09:58:53;;;;;;;32.72;18.05;;;;;;;;;;5096000;28;20091;-93
2022/12/19 10:01:21;;;;;;;;;;;;;;;;;;5096780;28;20054;-96
2022/12/19 10:03:57;;;;;;;33.53;18.13;;;;;;;;;;5100008;28;19942;-96
2022/12/19 10:06:25;;;;;;;34.65;18.75;;;;;;;;;;5103452;28;20445;-93
2022/12/19 10:09:16;;;;;;;33.83;18.70;;;;;;;;;;5102110;28;20052;-95
2022/12/19 10:12:21;;;;;;;33.03;17.65;;;;;;;;;;5100181;28;20044;-95
2022/12/19 10:15:15;;;;;;;35.67;19.20;;;;;;;;;;5102873;28;20052;-96
2022/12/19 10:17:55;;;;;;;34.42;18.05;;;;;;;;;;5104598;28;20080;-96
2022/12/19 10:20:29;;;;;;;36.92;18.30;;;;;;;;;;5102494;28;20058;-94
2022/12/19 10:23:09;;;;;;;33.83;17.30;;;;;;;;;;5100127;28;20048;-92
2022/12/19 10:25:58;;;;;;;33.55;18.20;;;;;;;;;;5102407;28;20062;-95
2022/12/19 10:28:32;;;;;;;32.85;17.20;;;;;;;;;;5101228;28;20048;-94
2022/12/19 10:31:10;;;;;;;30.92;17.33;;;;;;;;;;5102175;28;20050;-95
2022/12/19 10:33:57;;;;;;;32.05;17.73;;;;;;;;;;5102475;28;20194;-94
2022/12/19 10:36:25;;;;;;;28.67;16.27;;;;;;;;;;5110662;28;20058;-93
2022/12/19 10:39:18;;;;;;;35.17;17.23;;;;;;;;;;5120178;28;20040;-92
2022/12/19 10:41:47;;;;;;;33.95;17.17;;;;;;;;;;5116845;28;20044;-96
2022/12/19 10:44:14;;;;;;;32.85;17.73;;;;;;;;;;5105082;28;20492;-96
2022/12/19 10:46:46;;;;;;;35.63;18.50;;;;;;;;;;5099333;28;20480;-95
2022/12/19 10:49:17;;;;;;;35.55;19.60;;;;;;;;;;5102893;28;20028;-93
2022/12/19 10:52:00;;;;;;;32.58;17.92;;;;;;;;;;5108575;28;20044;-95
2022/12/19 10:54:36;;;;;;;33.03;18.65;;;;;;;;;;5095454;28;20113;-92
2022/12/19 10:57:22;;;;;;;37.35;18.90;;;;;;;;;;5095969;28;20072;-91
2022/12/19 10:59:55;;;;;;;43.10;20.58;;;;;;;;;;5095753;28;20059;-91
2022/12/19 11:02:38;;;;;;;38.70;20.15;;;;;;;;;;5095414;28;20040;-91
2022/12/19 11:05:19;;;;;;;33.13;18.27;;;;;;;;;;5095331;28;20052;-91
2022/12/19 11:08:05;;;;;;;37.30;19.50;;;;;;;;;;5095490;28;20048;-91
2022/12/19 11:10:36;;;;;;;36.13;19.40;;;;;;;;;;5095262;28;20055;-90
2022/12/19 11:13:41;;;;;;;35.95;18.88;;;;;;;;;;5094909;28;20048;-90
2022/12/19 11:16:34;;;;;;;34.67;19.10;;;;;;;;;;5095133;28;20519;-88
2022/12/19 11:19:25;;;;;;;32.80;17.92;;;;;;;;;;5095113;28;20040;-90
2022/12/19 11:22:15;;;;;;;34.25;18.63;;;;;;;;;;5096015;28;20066;-89
2022/12/19 11:25:03;;;;;;;37.90;19.00;;;;;;;;;;5095049;28;20087;-89
2022/12/19 11:27:51;;;;;;;36.10;18.67;;;;;;;;;;5096035;28;20496;-89
2022/12/19 11:30:40;;;;;;;37.85;18.45;;;;;;;;;;5095315;28;20055;-89
2022/12/19 11:33:28;;;;;;;39.80;20.48;;;;;;;;;;5094970;28;20105;-89
2022/12/19 11:36:00;;;;;;;31.20;17.98;;;;;;;;;;5093089;28;20094;-89
2022/12/19 11:38:52;;;;;;;36.03;19.75;;;;;;;;;;5095029;28;20419;-90
2022/12/19 11:41:24;;;;;;;35.75;19.27;;;;;;;;;;5094689;28;20058;-91
2022/12/19 11:44:02;;;;;;;35.80;20.25;;;;;;;;;;5093941;28;20052;-90
2022/12/19 11:46:29;;;;;;;36.63;18.75;;;;;;;;;;5094687;28;20080;-89
2022/12/19 11:49:00;;;;;;;34.97;19.30;;;;;;;;;;5094527;28;20424;-91
2022/12/19 11:51:39;;;;;;;37.80;18.88;;;;;;;;;;5095561;28;20059;-90
2022/12/19 11:54:13;;;;;;;32.15;18.00;;;;;;;;;;5094256;28;20068;-90
2022/12/19 11:56:40;;;;;;;35.05;18.75;;;;;;;;;;5094714;28;20048;-91
2022/12/19 11:59:27;;;;;;;35.03;18.63;;;;;;;;;;5094342;28;20050;-93
2022/12/19 12:02:07;;;;;;;38.42;19.25;;;;;;;;;;5094759;28;20062;-93
2022/12/19 12:04:53;;;;;;;32.80;17.88;;;;;;;;;;5098193;28;20040;-90
2022/12/19 12:07:20;;;;;;;32.67;17.58;;;;;;;;;;5106146;28;20052;-93
2022/12/19 12:10:18;;;;;;;35.35;18.13;;;;;;;;;;5094861;28;20487;-93
2022/12/19 12:13:21;;;;;;;33.28;17.98;;;;;;;;;;5096636;28;20052;-94
2022/12/19 12:16:11;;;;;;;36.55;19.35;;;;;;;;;;5096334;28;20044;-93
2022/12/19 12:18:58;;;;;;;36.00;19.25;;;;;;;;;;5097179;28;20064;-95
2022/12/19 12:21:52;;;;;;;39.80;19.92;;;;;;;;;;5097127;28;20044;-95
2022/12/19 12:24:59;;;;;;;37.17;19.45;;;;;;;;;;5096107;28;20093;-95
2022/12/19 12:27:53;;;;;;;39.78;20.40;;;;;;;;;;5096602;28;20048;-92
2022/12/19 12:31:01;;;;;;;34.25;19.52;;;;;;;;;;5097830;28;20048;-93
2022/12/19 12:34:03;;;;;;;34.20;18.27;;;;;;;;;;5097901;28;20048;-93
2022/12/19 12:37:09;;;;;;;40.47;19.63;;;;;;;;;;5101108;28;20048;-93
2022/12/19 12:39:56;;;;;;;36.35;20.20;;;;;;;;;;5100637;28;20051;-94
2022/12/19 12:42:30;;;;;;;39.20;20.60;;;;;;;;;;5098189;28;20510;-94
2022/12/19 12:44:57;;;;;;;;;;;;;;;;;;5098676;28;20048;-88
2022/12/19 12:47:26;;;;;;;40.35;19.02;;;;;;;;;;5100219;28;19933;-96
2022/12/19 12:49:55;;;;;;;37.67;20.25;;;;;;;;;;5116473;22;20078;-79
2022/12/19 12:52:40;;;;;;;37.63;20.48;;;;;;;;;;5100058;28;20486;-79
2022/12/19 12:55:19;;;;;;;39.13;21.13;;;;;;;;;;5098729;28;20064;-79
2022/12/19 12:57:46;;;;;;;36.42;19.33;;;;;;;;;;5102653;28;20055;-79
2022/12/19 13:00:14;;;;;;;39.47;22.08;;;;;;;;;;5104155;28;20546;-79
2022/12/19 13:02:42;;;;;;;36.63;20.75;;;;;;;;;;5102164;28;20048;-80
2022/12/19 13:05:22;;;;;;;38.10;20.00;;;;;;;;;;5100562;28;20115;-80
2022/12/19 13:07:54;;;;;;;33.90;19.40;;;;;;;;;;5100768;28;20603;-79
2022/12/19 13:10:25;;;;;;;41.22;21.05;;;;;;;;;;5103497;28;20047;-80
2022/12/19 13:13:14;;;;;;;42.67;20.85;;;;;;;;;;5101471;28;20054;-80
2022/12/19 13:15:48;;;;;;;40.30;21.30;;;;;;;;;;5100608;28;20101;-80
2022/12/19 13:18:28;;;;;;;40.08;20.67;;;;;;;;;;5100796;28;20103;-80
2022/12/19 13:20:55;;;;;;;36.03;20.42;;;;;;;;;;5101776;28;20048;-79
2022/12/19 13:23:32;;;;;;;38.40;20.58;;;;;;;;;;5100194;28;20047;-80
2022/12/19 13:26:00;;;;;;;40.35;22.90;;;;;;;;;;5101163;28;20048;-80
2022/12/19 13:28:27;;;;;;;41.75;20.75;;;;;;;;;;5101329;28;20082;-80
2022/12/19 13:31:04;;;;;;;41.08;21.95;;;;;;;;;;5097906;28;20068;-79
2022/12/19 13:33:52;;;;;;;42.28;21.77;;;;;;;;;;5099296;28;20044;-80
2022/12/19 13:36:40;;;;;;;41.28;22.00;;;;;;;;;;5098171;28;20127;-80
2022/12/19 13:39:27;;;;;;;42.10;21.45;;;;;;;;;;5099172;28;20043;-80
2022/12/19 13:45:08;;;;;;;40.00;21.00;;;;;;;;;;5098153;28;20052;-80
2022/12/19 13:47:38;;;;;;;39.92;21.48;;;;;;;;;;5096225;28;20051;-79
2022/12/19 13:50:06;;;;;;;40.75;20.98;;;;;;;;;;5095934;28;20550;-79
2022/12/19 13:52:33;;;;;;;39.63;21.33;;;;;;;;;;5098833;28;20087;-80
2022/12/19 13:55:01;;;;;;;40.35;21.50;;;;;;;;;;5100779;28;20107;-81
2022/12/19 13:57:30;;;;;;;39.92;21.48;;;;;;;;;;5098986;28;20048;-80
2022/12/19 14:00:00;;;;;;;38.50;21.15;;;;;;;;;;5102388;28;20115;-79
2022/12/19 14:02:30;;;;;;;40.38;21.17;;;;;;;;;;5101877;28;20406;-80
2022/12/19 14:04:58;;;;;;;42.50;22.45;;;;;;;;;;5099394;28;20066;-81
2022/12/19 14:07:29;;;;;;;40.42;21.33;;;;;;;;;;5099647;28;20567;-79
2022/12/19 14:10:04;;;;;;;42.30;21.80;;;;;;;;;;5101014;28;20055;-79
2022/12/19 14:15:57;;;;;;;40.78;20.92;;;;;;;;;;5100260;28;20048;-80
2022/12/19 14:18:26;;;;;;;47.28;22.33;;;;;;;;;;5106589;28;20105;-81
2022/12/19 14:21:31;;;;;;;42.75;20.85;;;;;;;;;;5105423;28;20483;-80
2022/12/19 14:24:19;;;;;;;38.50;20.90;;;;;;;;;;5107028;28;20055;-81
2022/12/19 14:26:48;;;;;;;41.75;22.58;;;;;;;;;;5103695;28;20044;-79
2022/12/19 14:29:41;;;;;;;41.38;21.58;;;;;;;;;;5106645;28;20502;-78
2022/12/19 14:32:28;;;;;;;42.38;22.17;;;;;;;;;;5103618;28;20114;-80
2022/12/19 14:35:17;;;;;;;44.25;21.48;;;;;;;;;;5102915;28;20044;-80
2022/12/19 14:38:06;;;;;;;42.33;21.30;;;;;;;;;;5102378;28;20048;-80
2022/12/19 14:40:54;;;;;;;41.45;22.42;;;;;;;;;;5103782;28;20051;-80
2022/12/19 14:43:39;;;;;;;40.60;21.23;;;;;;;;;;5101468;28;20051;-79
2022/12/19 14:46:28;;;;;;;39.38;21.73;;;;;;;;;;5100682;28;20044;-79
2022/12/19 14:49:23;;;;;;;47.65;21.48;;;;;;;;;;5101187;28;20425;-80
2022/12/19 14:52:29;;;;;;;40.88;21.27;;;;;;;;;;5102874;28;20059;-81
2022/12/19 14:55:30;;;;;;;40.95;20.13;;;;;;;;;;5107113;28;20487;-79
2022/12/19 14:58:19;;;;;;;44.05;22.30;;;;;;;;;;5105310;28;20429;-79
2022/12/19 15:01:20;;;;;;;38.83;21.25;;;;;;;;;;5106316;28;20051;-80
2022/12/19 15:03:55;;;;;;;44.15;21.92;;;;;;;;;;5104446;28;20044;-80
2022/12/19 15:06:43;;;;;;;46.93;22.90;;;;;;;;;;5106055;28;20209;-80
2022/12/19 15:09:32;;;;;;;38.40;21.50;;;;;;;;;;5107377;28;20044;-80
2022/12/19 15:15:44;;;;;;;44.85;23.85;;;;;;;;;;5106854;28;20044;-80
2022/12/19 15:18:18;;;;;;;37.53;21.10;;;;;;;;;;5104781;28;20146;-80